New Paris, Indiana
Current Conditions -  °F | °C
As of 3:53 PM on Thursday 23 Oct 2014 (Local Time) from KGSH Reporting Station
Clear Clear  
Wind Chill: 14°   Ceiling: Unl
Heat Index: 14°   Visibility: 10mi
Dew Point:   Wind: 8mph
Humidity: 53%   Direction: 220°SW
Pressure: 30.15"   Gusts: NA
Location:  41.5°N, 85.83°W
Report Text: KGSH 231953Z AUTO 22007KT 10SM CLR 14/05 A3015 RMK AO2 SLP213 T01440050
Loading
Personal Weather Stations






























Interactive Weather Map
Tropical Storm Tracking
New forecast layout! Learn more

10-Day Weather Forecast

Advertisements
Track Severe Weather on mobile